North Andover, Massachusetts
Current Conditions -  °F | °C
As of 10:54 PM on Saturday 22 Nov 2014 (Local Time) from KLWM Reporting Station
Broken Clouds Broken Clouds  
Wind Chill: 33°   Ceiling: 7500
Heat Index: 41°   Visibility: 10mi
Dew Point: 18°   Wind: 14mph
Humidity: 40%   Direction: 230°SW
Pressure: 30.05"   Gusts: 23mph
Location:  42.7°N, 71.13°W
Report Text: KLWM 230354Z AUTO 23012G20KT 10SM BKN075 05/M08 A3005 RMK AO2 SLP178 T00501078
Loading
Personal Weather Stations






























Interactive Weather Map New forecast layout! Learn more

10-Day Weather Forecast

Advertisements
Track Severe Weather on mobile